KOTH

Southwest Oregon Regional Airport

North Bend, Oregon, USA
METAR KOTH 190256Z 01016KT 10SM CLR 13/10 A3009 RMK AO2 SLP190 T01330100 50002
Observed Flight Rules
Sep-19 @ 02:56 UTC (23 minutes ago) Visual Flight Rules
Wind Visibility Clouds
10° at 16 knots 10 miles
  • Clear skies
Temperatures Readings
Current 13°C / 55°F
Dewpoint 10°C / 50°F
Humidity 82%
Altimeter 30.09" Hg
Pressure 1019 hPa
Elevation 4
METAR KOTH 190256Z 01016KT 10SM CLR 13/10 A3009 RMK AO2 SLP190 T01330100 50002
Observed Flight Rules
Sep-19 @ 02:56 UTC
(23 minutes ago)
VFR
Wind Visibility
10° at 16 knots 10 miles
Clouds
  • Clear skies
Temperature Dewpoint
13°C / 55°F 10°C / 50°F
Humidity Altimeter Pressure
82% 30.09" Hg 1019 hPa